sensor_id;sensor_type;location;lat;lon;timestamp;temperature;humidity
37806;DHT22;25082;50.870;0.022;2023-10-13T00:01:57;19.50;85.20
37806;DHT22;25082;50.870;0.022;2023-10-13T00:04:27;19.40;85.20
37806;DHT22;25082;50.870;0.022;2023-10-13T00:06:56;19.50;85.20
37806;DHT22;25082;50.870;0.022;2023-10-13T00:09:27;19.40;85.20
37806;DHT22;25082;50.870;0.022;2023-10-13T00:12:06;19.40;85.20
37806;DHT22;25082;50.870;0.022;2023-10-13T00:14:41;19.50;85.30
37806;DHT22;25082;50.870;0.022;2023-10-13T00:17:10;19.40;85.20
37806;DHT22;25082;50.870;0.022;2023-10-13T00:19:44;19.50;85.30
37806;DHT22;25082;50.870;0.022;2023-10-13T00:22:12;19.50;85.30
37806;DHT22;25082;50.870;0.022;2023-10-13T00:24:42;19.50;85.30
37806;DHT22;25082;50.870;0.022;2023-10-13T00:27:15;19.50;85.30
37806;DHT22;25082;50.870;0.022;2023-10-13T00:30:00;19.50;85.30
37806;DHT22;25082;50.870;0.022;2023-10-13T00:32:48;19.40;85.30
37806;DHT22;25082;50.870;0.022;2023-10-13T00:35:21;19.40;85.30
37806;DHT22;25082;50.870;0.022;2023-10-13T00:38:03;19.40;85.20
37806;DHT22;25082;50.870;0.022;2023-10-13T00:40:46;19.40;85.40
37806;DHT22;25082;50.870;0.022;2023-10-13T00:43:22;19.40;85.30
37806;DHT22;25082;50.870;0.022;2023-10-13T00:45:49;19.40;85.30
37806;DHT22;25082;50.870;0.022;2023-10-13T00:48:33;19.40;85.30
37806;DHT22;25082;50.870;0.022;2023-10-13T00:51:04;19.40;85.30
37806;DHT22;25082;50.870;0.022;2023-10-13T00:53:33;19.40;85.30
37806;DHT22;25082;50.870;0.022;2023-10-13T00:56:01;19.40;85.30
37806;DHT22;25082;50.870;0.022;2023-10-13T00:58:37;19.40;85.30
37806;DHT22;25082;50.870;0.022;2023-10-13T01:01:05;19.40;85.30
37806;DHT22;25082;50.870;0.022;2023-10-13T01:03:48;19.40;85.30
37806;DHT22;25082;50.870;0.022;2023-10-13T01:06:18;19.40;85.30
37806;DHT22;25082;50.870;0.022;2023-10-13T01:08:46;19.40;85.20
37806;DHT22;25082;50.870;0.022;2023-10-13T01:11:17;19.40;85.30
37806;DHT22;25082;50.870;0.022;2023-10-13T01:13:43;19.40;85.30
37806;DHT22;25082;50.870;0.022;2023-10-13T01:16:09;19.40;85.20
37806;DHT22;25082;50.870;0.022;2023-10-13T01:18:36;19.40;85.30
37806;DHT22;25082;50.870;0.022;2023-10-13T01:21:17;19.40;85.20
37806;DHT22;25082;50.870;0.022;2023-10-13T01:23:46;19.40;85.20
37806;DHT22;25082;50.870;0.022;2023-10-13T01:26:13;19.40;85.20
37806;DHT22;25082;50.870;0.022;2023-10-13T01:29:07;19.40;85.20
37806;DHT22;25082;50.870;0.022;2023-10-13T01:31:41;19.40;85.20
37806;DHT22;25082;50.870;0.022;2023-10-13T01:34:14;19.40;85.20
37806;DHT22;25082;50.870;0.022;2023-10-13T01:36:56;19.40;85.20
37806;DHT22;25082;50.870;0.022;2023-10-13T01:39:23;19.40;85.20
37806;DHT22;25082;50.870;0.022;2023-10-13T01:41:57;19.40;85.20
37806;DHT22;25082;50.870;0.022;2023-10-13T01:44:26;19.40;85.20
37806;DHT22;25082;50.870;0.022;2023-10-13T01:46:59;19.40;85.20
37806;DHT22;25082;50.870;0.022;2023-10-13T01:49:25;19.40;85.20
37806;DHT22;25082;50.870;0.022;2023-10-13T01:51:51;19.40;85.20
37806;DHT22;25082;50.870;0.022;2023-10-13T01:54:17;19.40;85.20
37806;DHT22;25082;50.870;0.022;2023-10-13T01:56:43;19.40;85.20
37806;DHT22;25082;50.870;0.022;2023-10-13T01:59:11;19.40;85.20
37806;DHT22;25082;50.870;0.022;2023-10-13T02:01:38;19.40;85.10
37806;DHT22;25082;50.870;0.022;2023-10-13T02:04:05;19.40;85.20
37806;DHT22;25082;50.870;0.022;2023-10-13T02:06:34;19.40;85.20
37806;DHT22;25082;50.870;0.022;2023-10-13T02:09:08;19.40;85.20
37806;DHT22;25082;50.870;0.022;2023-10-13T02:11:51;19.40;85.10
37806;DHT22;25082;50.870;0.022;2023-10-13T02:14:21;19.40;85.20
37806;DHT22;25082;50.870;0.022;2023-10-13T02:16:48;19.40;85.20
37806;DHT22;25082;50.870;0.022;2023-10-13T02:19:21;19.40;85.20
37806;DHT22;25082;50.870;0.022;2023-10-13T02:21:48;19.40;85.20
37806;DHT22;25082;50.870;0.022;2023-10-13T02:24:24;19.40;85.10
37806;DHT22;25082;50.870;0.022;2023-10-13T02:26:58;19.40;85.10
37806;DHT22;25082;50.870;0.022;2023-10-13T02:29:34;19.40;85.10
37806;DHT22;25082;50.870;0.022;2023-10-13T02:32:05;19.40;85.20
37806;DHT22;25082;50.870;0.022;2023-10-13T02:34:38;19.40;85.10
37806;DHT22;25082;50.870;0.022;2023-10-13T02:37:10;19.40;85.20
37806;DHT22;25082;50.870;0.022;2023-10-13T02:39:36;19.40;85.10
37806;DHT22;25082;50.870;0.022;2023-10-13T02:42:02;19.40;85.10
37806;DHT22;25082;50.870;0.022;2023-10-13T02:44:33;19.40;85.20
37806;DHT22;25082;50.870;0.022;2023-10-13T02:47:03;19.30;85.10
37806;DHT22;25082;50.870;0.022;2023-10-13T02:49:39;19.40;85.10
37806;DHT22;25082;50.870;0.022;2023-10-13T02:52:11;19.40;85.10
37806;DHT22;25082;50.870;0.022;2023-10-13T02:54:41;19.40;85.10
37806;DHT22;25082;50.870;0.022;2023-10-13T02:57:16;19.40;85.10
37806;DHT22;25082;50.870;0.022;2023-10-13T02:59:44;19.40;85.10
37806;DHT22;25082;50.870;0.022;2023-10-13T03:02:16;19.40;85.10
37806;DHT22;25082;50.870;0.022;2023-10-13T03:04:58;19.40;85.10
37806;DHT22;25082;50.870;0.022;2023-10-13T03:07:35;19.30;85.00
37806;DHT22;25082;50.870;0.022;2023-10-13T03:10:02;19.40;85.10
37806;DHT22;25082;50.870;0.022;2023-10-13T03:12:46;19.40;85.10
37806;DHT22;25082;50.870;0.022;2023-10-13T03:15:14;19.40;85.00
37806;DHT22;25082;50.870;0.022;2023-10-13T03:17:44;19.40;85.00
37806;DHT22;25082;50.870;0.022;2023-10-13T03:20:11;19.40;85.10
37806;DHT22;25082;50.870;0.022;2023-10-13T03:22:41;19.40;85.10
37806;DHT22;25082;50.870;0.022;2023-10-13T03:25:13;19.40;85.10
37806;DHT22;25082;50.870;0.022;2023-10-13T03:27:49;19.40;85.10
37806;DHT22;25082;50.870;0.022;2023-10-13T03:30:18;19.40;85.10
37806;DHT22;25082;50.870;0.022;2023-10-13T03:32:46;19.40;85.20
37806;DHT22;25082;50.870;0.022;2023-10-13T03:35:12;19.40;85.20
37806;DHT22;25082;50.870;0.022;2023-10-13T03:37:38;19.40;85.20
37806;DHT22;25082;50.870;0.022;2023-10-13T03:40:12;19.40;85.20
37806;DHT22;25082;50.870;0.022;2023-10-13T03:42:47;19.40;85.20
37806;DHT22;25082;50.870;0.022;2023-10-13T03:45:37;19.40;85.20
37806;DHT22;25082;50.870;0.022;2023-10-13T03:48:07;19.40;85.20
37806;DHT22;25082;50.870;0.022;2023-10-13T03:50:38;19.40;85.20
37806;DHT22;25082;50.870;0.022;2023-10-13T03:53:12;19.40;85.20
37806;DHT22;25082;50.870;0.022;2023-10-13T03:55:39;19.40;85.30
37806;DHT22;25082;50.870;0.022;2023-10-13T03:58:05;19.40;85.30
37806;DHT22;25082;50.870;0.022;2023-10-13T04:00:32;19.40;85.40
37806;DHT22;25082;50.870;0.022;2023-10-13T04:02:58;19.40;85.40
37806;DHT22;25082;50.870;0.022;2023-10-13T04:05:33;19.40;85.40
37806;DHT22;25082;50.870;0.022;2023-10-13T04:08:07;19.40;85.40
37806;DHT22;25082;50.870;0.022;2023-10-13T04:10:56;19.40;85.40
37806;DHT22;25082;50.870;0.022;2023-10-13T04:13:22;19.40;85.40
37806;DHT22;25082;50.870;0.022;2023-10-13T04:16:26;19.40;85.40
37806;DHT22;25082;50.870;0.022;2023-10-13T04:18:52;19.40;85.40
37806;DHT22;25082;50.870;0.022;2023-10-13T04:21:23;19.40;85.50
37806;DHT22;25082;50.870;0.022;2023-10-13T04:24:13;19.40;85.50
37806;DHT22;25082;50.870;0.022;2023-10-13T04:26:52;19.30;85.40
37806;DHT22;25082;50.870;0.022;2023-10-13T04:29:36;19.40;85.50
37806;DHT22;25082;50.870;0.022;2023-10-13T04:32:21;19.40;85.40
37806;DHT22;25082;50.870;0.022;2023-10-13T04:35:04;19.30;85.40
37806;DHT22;25082;50.870;0.022;2023-10-13T04:37:44;19.30;85.40
37806;DHT22;25082;50.870;0.022;2023-10-13T04:40:20;19.30;85.40
37806;DHT22;25082;50.870;0.022;2023-10-13T04:42:51;19.30;85.40
37806;DHT22;25082;50.870;0.022;2023-10-13T04:45:25;19.30;85.40
37806;DHT22;25082;50.870;0.022;2023-10-13T04:47:58;19.30;85.40
37806;DHT22;25082;50.870;0.022;2023-10-13T04:50:41;19.30;85.30
37806;DHT22;25082;50.870;0.022;2023-10-13T04:53:14;19.30;85.40
37806;DHT22;25082;50.870;0.022;2023-10-13T04:56:01;19.40;85.50
37806;DHT22;25082;50.870;0.022;2023-10-13T04:58:33;19.30;85.30
37806;DHT22;25082;50.870;0.022;2023-10-13T05:01:04;19.40;85.30
37806;DHT22;25082;50.870;0.022;2023-10-13T05:04:03;19.30;85.30
37806;DHT22;25082;50.870;0.022;2023-10-13T05:06:44;19.30;85.30
37806;DHT22;25082;50.870;0.022;2023-10-13T05:09:13;19.30;85.30
37806;DHT22;25082;50.870;0.022;2023-10-13T05:11:57;19.30;85.20
37806;DHT22;25082;50.870;0.022;2023-10-13T05:14:42;19.40;85.60
37806;DHT22;25082;50.870;0.022;2023-10-13T05:17:26;19.30;85.20
37806;DHT22;25082;50.870;0.022;2023-10-13T05:20:10;19.30;85.20
37806;DHT22;25082;50.870;0.022;2023-10-13T05:22:54;19.30;85.30
37806;DHT22;25082;50.870;0.022;2023-10-13T05:25:38;19.40;85.30
37806;DHT22;25082;50.870;0.022;2023-10-13T05:28:23;19.40;85.20
37806;DHT22;25082;50.870;0.022;2023-10-13T05:31:07;19.30;85.20
37806;DHT22;25082;50.870;0.022;2023-10-13T05:33:52;19.40;85.30
37806;DHT22;25082;50.870;0.022;2023-10-13T05:36:36;19.40;85.20
37806;DHT22;25082;50.870;0.022;2023-10-13T05:39:20;19.40;85.20
37806;DHT22;25082;50.870;0.022;2023-10-13T05:42:05;19.40;85.20
37806;DHT22;25082;50.870;0.022;2023-10-13T05:44:49;19.30;85.10
37806;DHT22;25082;50.870;0.022;2023-10-13T05:47:33;19.40;85.10
37806;DHT22;25082;50.870;0.022;2023-10-13T05:50:02;19.30;85.10
37806;DHT22;25082;50.870;0.022;2023-10-13T05:52:47;19.30;85.10
37806;DHT22;25082;50.870;0.022;2023-10-13T05:55:28;19.30;85.10
37806;DHT22;25082;50.870;0.022;2023-10-13T05:58:13;19.30;85.10
37806;DHT22;25082;50.870;0.022;2023-10-13T06:00:58;19.30;85.20
37806;DHT22;25082;50.870;0.022;2023-10-13T06:03:42;19.40;85.20
37806;DHT22;25082;50.870;0.022;2023-10-13T06:06:26;19.30;85.10
37806;DHT22;25082;50.870;0.022;2023-10-13T06:09:11;19.30;85.60
37806;DHT22;25082;50.870;0.022;2023-10-13T06:11:55;19.40;85.10
37806;DHT22;25082;50.870;0.022;2023-10-13T06:14:39;19.30;85.10
37806;DHT22;25082;50.870;0.022;2023-10-13T06:17:24;19.30;85.10
37806;DHT22;25082;50.870;0.022;2023-10-13T06:20:09;19.40;85.10
37806;DHT22;25082;50.870;0.022;2023-10-13T06:22:53;19.30;85.00
37806;DHT22;25082;50.870;0.022;2023-10-13T06:25:38;19.30;85.20
37806;DHT22;25082;50.870;0.022;2023-10-13T06:28:22;19.30;85.10
37806;DHT22;25082;50.870;0.022;2023-10-13T06:31:07;19.30;85.00
37806;DHT22;25082;50.870;0.022;2023-10-13T06:33:33;19.30;85.10
37806;DHT22;25082;50.870;0.022;2023-10-13T06:36:03;19.30;85.00
37806;DHT22;25082;50.870;0.022;2023-10-13T06:38:29;19.30;85.00
37806;DHT22;25082;50.870;0.022;2023-10-13T06:41:05;19.30;85.00
37806;DHT22;25082;50.870;0.022;2023-10-13T06:43:35;19.30;85.10
37806;DHT22;25082;50.870;0.022;2023-10-13T06:46:11;19.30;85.00
37806;DHT22;25082;50.870;0.022;2023-10-13T06:48:49;19.30;84.90
37806;DHT22;25082;50.870;0.022;2023-10-13T06:51:18;19.40;85.00
37806;DHT22;25082;50.870;0.022;2023-10-13T06:53:47;19.30;85.00
37806;DHT22;25082;50.870;0.022;2023-10-13T06:56:14;19.30;84.90
37806;DHT22;25082;50.870;0.022;2023-10-13T06:58:51;19.30;85.20
37806;DHT22;25082;50.870;0.022;2023-10-13T07:01:17;19.30;85.00
37806;DHT22;25082;50.870;0.022;2023-10-13T07:03:48;19.40;85.00
37806;DHT22;25082;50.870;0.022;2023-10-13T07:06:20;19.30;84.90
37806;DHT22;25082;50.870;0.022;2023-10-13T07:08:47;19.30;84.90
37806;DHT22;25082;50.870;0.022;2023-10-13T07:11:27;19.30;85.00
37806;DHT22;25082;50.870;0.022;2023-10-13T07:14:02;19.30;85.00
37806;DHT22;25082;50.870;0.022;2023-10-13T07:17:02;19.40;84.90
37806;DHT22;25082;50.870;0.022;2023-10-13T07:19:30;19.30;84.90
37806;DHT22;25082;50.870;0.022;2023-10-13T07:22:02;19.30;84.90
37806;DHT22;25082;50.870;0.022;2023-10-13T07:24:47;19.30;84.80
37806;DHT22;25082;50.870;0.022;2023-10-13T07:27:19;19.40;84.90
37806;DHT22;25082;50.870;0.022;2023-10-13T07:29:53;19.30;85.40
37806;DHT22;25082;50.870;0.022;2023-10-13T07:32:42;19.40;84.90
37806;DHT22;25082;50.870;0.022;2023-10-13T07:35:16;19.40;84.90
37806;DHT22;25082;50.870;0.022;2023-10-13T07:37:45;19.30;84.90
37806;DHT22;25082;50.870;0.022;2023-10-13T07:40:14;19.30;84.90
37806;DHT22;25082;50.870;0.022;2023-10-13T07:42:53;19.30;84.80
37806;DHT22;25082;50.870;0.022;2023-10-13T07:45:27;19.40;84.90
37806;DHT22;25082;50.870;0.022;2023-10-13T07:48:02;19.30;84.90
37806;DHT22;25082;50.870;0.022;2023-10-13T07:50:34;19.30;84.80
37806;DHT22;25082;50.870;0.022;2023-10-13T07:52:59;19.30;84.80
37806;DHT22;25082;50.870;0.022;2023-10-13T07:55:45;19.30;84.80
37806;DHT22;25082;50.870;0.022;2023-10-13T07:58:12;19.40;84.80
37806;DHT22;25082;50.870;0.022;2023-10-13T08:00:39;19.30;84.70
37806;DHT22;25082;50.870;0.022;2023-10-13T08:03:11;19.30;84.80
37806;DHT22;25082;50.870;0.022;2023-10-13T08:05:43;19.30;84.80
37806;DHT22;25082;50.870;0.022;2023-10-13T08:08:33;19.30;84.70
37806;DHT22;25082;50.870;0.022;2023-10-13T08:11:13;19.30;84.80
37806;DHT22;25082;50.870;0.022;2023-10-13T08:13:54;19.40;85.10
37806;DHT22;25082;50.870;0.022;2023-10-13T08:16:28;19.40;84.90
37806;DHT22;25082;50.870;0.022;2023-10-13T08:19:13;19.30;84.80
37806;DHT22;25082;50.870;0.022;2023-10-13T08:21:47;19.40;84.90
37806;DHT22;25082;50.870;0.022;2023-10-13T08:24:23;19.40;85.10
37806;DHT22;25082;50.870;0.022;2023-10-13T08:27:18;19.40;85.20
37806;DHT22;25082;50.870;0.022;2023-10-13T08:30:03;19.40;85.30
37806;DHT22;25082;50.870;0.022;2023-10-13T08:32:48;19.40;85.20
37806;DHT22;25082;50.870;0.022;2023-10-13T08:35:21;19.40;85.20
37806;DHT22;25082;50.870;0.022;2023-10-13T08:37:55;19.40;85.20
37806;DHT22;25082;50.870;0.022;2023-10-13T08:40:26;19.40;85.20
37806;DHT22;25082;50.870;0.022;2023-10-13T08:43:01;19.40;85.20
37806;DHT22;25082;50.870;0.022;2023-10-13T08:45:28;19.40;85.20
37806;DHT22;25082;50.870;0.022;2023-10-13T08:47:57;19.40;85.10
37806;DHT22;25082;50.870;0.022;2023-10-13T08:50:51;19.40;85.20
37806;DHT22;25082;50.870;0.022;2023-10-13T08:53:27;19.40;85.10
37806;DHT22;25082;50.870;0.022;2023-10-13T08:56:08;19.40;85.50
37806;DHT22;25082;50.870;0.022;2023-10-13T08:58:43;19.40;85.40
37806;DHT22;25082;50.870;0.022;2023-10-13T09:04:16;19.40;85.50
37806;DHT22;25082;50.870;0.022;2023-10-13T09:07:14;19.40;85.70
37806;DHT22;25082;50.870;0.022;2023-10-13T09:09:49;19.40;85.60
37806;DHT22;25082;50.870;0.022;2023-10-13T09:12:28;19.40;85.60
37806;DHT22;25082;50.870;0.022;2023-10-13T09:14:57;19.50;85.70
37806;DHT22;25082;50.870;0.022;2023-10-13T09:17:27;19.40;85.60
37806;DHT22;25082;50.870;0.022;2023-10-13T09:20:06;19.50;85.70
37806;DHT22;25082;50.870;0.022;2023-10-13T09:22:55;19.50;85.80
37806;DHT22;25082;50.870;0.022;2023-10-13T09:25:30;19.40;85.80
37806;DHT22;25082;50.870;0.022;2023-10-13T09:28:13;19.50;85.70
37806;DHT22;25082;50.870;0.022;2023-10-13T09:30:45;19.50;85.70
37806;DHT22;25082;50.870;0.022;2023-10-13T09:33:11;19.50;86.30
37806;DHT22;25082;50.870;0.022;2023-10-13T09:35:46;19.50;85.70
37806;DHT22;25082;50.870;0.022;2023-10-13T09:38:16;19.50;85.70
37806;DHT22;25082;50.870;0.022;2023-10-13T09:40:43;19.50;85.80
37806;DHT22;25082;50.870;0.022;2023-10-13T09:43:17;19.50;85.80
37806;DHT22;25082;50.870;0.022;2023-10-13T09:45:47;19.50;85.70
37806;DHT22;25082;50.870;0.022;2023-10-13T09:48:38;19.50;85.80
37806;DHT22;25082;50.870;0.022;2023-10-13T09:51:15;19.50;85.80
37806;DHT22;25082;50.870;0.022;2023-10-13T09:53:51;19.50;85.80
37806;DHT22;25082;50.870;0.022;2023-10-13T09:56:35;19.50;85.90
37806;DHT22;25082;50.870;0.022;2023-10-13T09:59:20;19.50;85.90
37806;DHT22;25082;50.870;0.022;2023-10-13T10:01:46;19.50;86.00
37806;DHT22;25082;50.870;0.022;2023-10-13T10:04:23;19.50;86.00
37806;DHT22;25082;50.870;0.022;2023-10-13T10:06:56;19.50;86.00
37806;DHT22;25082;50.870;0.022;2023-10-13T10:09:33;19.50;86.20
37806;DHT22;25082;50.870;0.022;2023-10-13T10:12:32;19.50;86.30
37806;DHT22;25082;50.870;0.022;2023-10-13T10:15:29;19.50;86.40
37806;DHT22;25082;50.870;0.022;2023-10-13T10:18:01;19.50;86.30
37806;DHT22;25082;50.870;0.022;2023-10-13T10:20:36;19.50;86.30
37806;DHT22;25082;50.870;0.022;2023-10-13T10:23:28;19.50;86.40
37806;DHT22;25082;50.870;0.022;2023-10-13T10:25:54;19.50;86.30
37806;DHT22;25082;50.870;0.022;2023-10-13T10:28:41;19.50;86.40
37806;DHT22;25082;50.870;0.022;2023-10-13T10:31:12;19.60;86.40
37806;DHT22;25082;50.870;0.022;2023-10-13T10:33:40;19.60;86.50
37806;DHT22;25082;50.870;0.022;2023-10-13T10:36:07;19.60;86.50
37806;DHT22;25082;50.870;0.022;2023-10-13T10:38:54;19.60;86.50
37806;DHT22;25082;50.870;0.022;2023-10-13T10:41:30;19.60;86.50
37806;DHT22;25082;50.870;0.022;2023-10-13T10:44:16;19.60;86.50
37806;DHT22;25082;50.870;0.022;2023-10-13T10:46:43;19.60;86.50
37806;DHT22;25082;50.870;0.022;2023-10-13T10:49:25;19.60;86.60
37806;DHT22;25082;50.870;0.022;2023-10-13T10:52:01;19.60;86.60
37806;DHT22;25082;50.870;0.022;2023-10-13T10:54:31;19.60;86.60
37806;DHT22;25082;50.870;0.022;2023-10-13T10:57:00;19.60;86.70
37806;DHT22;25082;50.870;0.022;2023-10-13T10:59:42;19.60;86.70
37806;DHT22;25082;50.870;0.022;2023-10-13T11:02:08;19.60;86.80
37806;DHT22;25082;50.870;0.022;2023-10-13T11:04:35;19.60;86.80
37806;DHT22;25082;50.870;0.022;2023-10-13T11:07:06;19.60;86.80
37806;DHT22;25082;50.870;0.022;2023-10-13T11:09:34;19.60;86.80
37806;DHT22;25082;50.870;0.022;2023-10-13T11:12:09;19.60;87.00
37806;DHT22;25082;50.870;0.022;2023-10-13T11:14:43;19.60;87.00
37806;DHT22;25082;50.870;0.022;2023-10-13T11:17:21;19.60;87.20
37806;DHT22;25082;50.870;0.022;2023-10-13T11:19:52;19.70;87.60
37806;DHT22;25082;50.870;0.022;2023-10-13T11:22:20;19.70;87.60
37806;DHT22;25082;50.870;0.022;2023-10-13T11:24:58;19.60;87.70
37806;DHT22;25082;50.870;0.022;2023-10-13T11:27:37;19.70;87.90
37806;DHT22;25082;50.870;0.022;2023-10-13T11:30:18;19.70;88.00
37806;DHT22;25082;50.870;0.022;2023-10-13T11:32:57;19.70;88.00
37806;DHT22;25082;50.870;0.022;2023-10-13T11:35:23;19.60;88.20
37806;DHT22;25082;50.870;0.022;2023-10-13T11:37:52;19.70;88.40
37806;DHT22;25082;50.870;0.022;2023-10-13T11:40:38;19.70;88.50
37806;DHT22;25082;50.870;0.022;2023-10-13T11:43:23;19.70;88.50
37806;DHT22;25082;50.870;0.022;2023-10-13T11:45:50;19.70;88.50
37806;DHT22;25082;50.870;0.022;2023-10-13T11:48:39;19.70;88.50
37806;DHT22;25082;50.870;0.022;2023-10-13T11:51:11;19.70;88.80
37806;DHT22;25082;50.870;0.022;2023-10-13T11:53:44;19.70;89.00
37806;DHT22;25082;50.870;0.022;2023-10-13T11:56:19;19.80;89.20
37806;DHT22;25082;50.870;0.022;2023-10-13T11:58:49;19.70;89.20
37806;DHT22;25082;50.870;0.022;2023-10-13T12:01:15;19.80;89.40
37806;DHT22;25082;50.870;0.022;2023-10-13T12:03:41;19.80;89.20
37806;DHT22;25082;50.870;0.022;2023-10-13T12:06:26;19.80;89.20
37806;DHT22;25082;50.870;0.022;2023-10-13T12:09:05;19.80;89.20
37806;DHT22;25082;50.870;0.022;2023-10-13T12:11:47;19.90;89.10
37806;DHT22;25082;50.870;0.022;2023-10-13T12:14:17;19.80;89.00
37806;DHT22;25082;50.870;0.022;2023-10-13T12:17:03;19.90;88.90
37806;DHT22;25082;50.870;0.022;2023-10-13T12:19:30;19.90;88.90
37806;DHT22;25082;50.870;0.022;2023-10-13T12:21:57;19.90;89.00
37806;DHT22;25082;50.870;0.022;2023-10-13T12:24:24;20.00;89.10
37806;DHT22;25082;50.870;0.022;2023-10-13T12:27:06;19.90;89.10
37806;DHT22;25082;50.870;0.022;2023-10-13T12:29:51;20.00;89.30
37806;DHT22;25082;50.870;0.022;2023-10-13T12:32:18;20.00;90.10
37806;DHT22;25082;50.870;0.022;2023-10-13T12:34:49;20.00;89.50
37806;DHT22;25082;50.870;0.022;2023-10-13T12:37:28;20.00;89.30
37806;DHT22;25082;50.870;0.022;2023-10-13T12:40:11;19.90;89.20
37806;DHT22;25082;50.870;0.022;2023-10-13T12:42:56;20.00;89.00
37806;DHT22;25082;50.870;0.022;2023-10-13T12:45:44;20.00;88.60
37806;DHT22;25082;50.870;0.022;2023-10-13T12:48:29;20.00;88.40
37806;DHT22;25082;50.870;0.022;2023-10-13T12:51:14;20.00;88.40
37806;DHT22;25082;50.870;0.022;2023-10-13T12:53:52;20.00;88.10
37806;DHT22;25082;50.870;0.022;2023-10-13T12:56:20;20.00;87.90
37806;DHT22;25082;50.870;0.022;2023-10-13T12:58:52;19.90;87.80
37806;DHT22;25082;50.870;0.022;2023-10-13T13:01:18;20.00;87.70
37806;DHT22;25082;50.870;0.022;2023-10-13T13:03:49;19.90;87.60
37806;DHT22;25082;50.870;0.022;2023-10-13T13:06:18;19.90;87.50
37806;DHT22;25082;50.870;0.022;2023-10-13T13:08:53;19.90;87.50
37806;DHT22;25082;50.870;0.022;2023-10-13T13:11:20;19.90;87.50
37806;DHT22;25082;50.870;0.022;2023-10-13T13:13:46;19.90;87.60
37806;DHT22;25082;50.870;0.022;2023-10-13T13:16:13;19.90;87.60
37806;DHT22;25082;50.870;0.022;2023-10-13T13:18:38;20.00;87.60
37806;DHT22;25082;50.870;0.022;2023-10-13T13:21:05;19.90;88.10
37806;DHT22;25082;50.870;0.022;2023-10-13T13:23:37;19.90;87.50
37806;DHT22;25082;50.870;0.022;2023-10-13T13:26:05;19.90;87.40
37806;DHT22;25082;50.870;0.022;2023-10-13T13:28:42;20.00;87.50
37806;DHT22;25082;50.870;0.022;2023-10-13T13:31:08;20.00;87.60
37806;DHT22;25082;50.870;0.022;2023-10-13T13:33:35;19.90;87.50
37806;DHT22;25082;50.870;0.022;2023-10-13T13:36:07;19.90;87.50
37806;DHT22;25082;50.870;0.022;2023-10-13T13:38:33;20.00;87.50
37806;DHT22;25082;50.870;0.022;2023-10-13T13:41:00;20.00;87.50
37806;DHT22;25082;50.870;0.022;2023-10-13T13:43:28;20.00;87.50
37806;DHT22;25082;50.870;0.022;2023-10-13T13:45:58;20.00;87.50
37806;DHT22;25082;50.870;0.022;2023-10-13T13:48:27;20.00;87.40
37806;DHT22;25082;50.870;0.022;2023-10-13T13:50:53;19.90;87.50
37806;DHT22;25082;50.870;0.022;2023-10-13T13:53:29;19.90;87.50
37806;DHT22;25082;50.870;0.022;2023-10-13T13:56:03;19.90;87.50
37806;DHT22;25082;50.870;0.022;2023-10-13T13:58:30;20.00;87.50
37806;DHT22;25082;50.870;0.022;2023-10-13T14:01:02;19.90;87.60
37806;DHT22;25082;50.870;0.022;2023-10-13T14:03:46;19.90;87.60
37806;DHT22;25082;50.870;0.022;2023-10-13T14:06:13;19.90;87.50
37806;DHT22;25082;50.870;0.022;2023-10-13T14:08:44;20.00;87.50
37806;DHT22;25082;50.870;0.022;2023-10-13T14:11:17;20.00;87.40
37806;DHT22;25082;50.870;0.022;2023-10-13T14:14:01;19.90;87.50
37806;DHT22;25082;50.870;0.022;2023-10-13T14:16:30;19.90;87.40
37806;DHT22;25082;50.870;0.022;2023-10-13T14:18:59;20.00;87.40
37806;DHT22;25082;50.870;0.022;2023-10-13T14:21:27;19.90;87.40
37806;DHT22;25082;50.870;0.022;2023-10-13T14:23:53;20.00;87.30
37806;DHT22;25082;50.870;0.022;2023-10-13T14:26:20;20.00;87.30
37806;DHT22;25082;50.870;0.022;2023-10-13T14:28:48;20.00;87.30
37806;DHT22;25082;50.870;0.022;2023-10-13T14:31:31;20.00;87.30
37806;DHT22;25082;50.870;0.022;2023-10-13T14:33:58;19.90;87.20
37806;DHT22;25082;50.870;0.022;2023-10-13T14:36:24;20.00;87.30
37806;DHT22;25082;50.870;0.022;2023-10-13T14:38:55;20.00;87.30
37806;DHT22;25082;50.870;0.022;2023-10-13T14:41:21;20.00;87.30
37806;DHT22;25082;50.870;0.022;2023-10-13T14:43:47;20.00;87.20
37806;DHT22;25082;50.870;0.022;2023-10-13T14:46:16;20.00;87.20
37806;DHT22;25082;50.870;0.022;2023-10-13T14:48:45;20.00;87.10
37806;DHT22;25082;50.870;0.022;2023-10-13T14:51:14;20.00;87.10
37806;DHT22;25082;50.870;0.022;2023-10-13T14:53:43;20.00;87.10
37806;DHT22;25082;50.870;0.022;2023-10-13T14:56:16;20.00;87.00
37806;DHT22;25082;50.870;0.022;2023-10-13T14:58:43;20.00;87.00
37806;DHT22;25082;50.870;0.022;2023-10-13T15:01:19;20.00;87.00
37806;DHT22;25082;50.870;0.022;2023-10-13T15:03:47;20.00;86.90
37806;DHT22;25082;50.870;0.022;2023-10-13T15:06:20;20.00;86.90
37806;DHT22;25082;50.870;0.022;2023-10-13T15:08:47;20.00;86.80
37806;DHT22;25082;50.870;0.022;2023-10-13T15:11:13;20.00;86.70
37806;DHT22;25082;50.870;0.022;2023-10-13T15:13:42;20.00;86.70
37806;DHT22;25082;50.870;0.022;2023-10-13T15:16:22;20.00;86.70
37806;DHT22;25082;50.870;0.022;2023-10-13T15:18:49;20.00;87.20
37806;DHT22;25082;50.870;0.022;2023-10-13T15:21:21;20.00;86.60
37806;DHT22;25082;50.870;0.022;2023-10-13T15:23:48;20.00;86.60
37806;DHT22;25082;50.870;0.022;2023-10-13T15:26:17;20.00;86.60
37806;DHT22;25082;50.870;0.022;2023-10-13T15:28:43;20.00;86.60
37806;DHT22;25082;50.870;0.022;2023-10-13T15:31:29;20.00;86.50
37806;DHT22;25082;50.870;0.022;2023-10-13T15:34:04;20.00;86.40
37806;DHT22;25082;50.870;0.022;2023-10-13T15:36:42;20.00;86.40
37806;DHT22;25082;50.870;0.022;2023-10-13T15:39:11;20.00;86.40
37806;DHT22;25082;50.870;0.022;2023-10-13T15:41:37;20.00;86.40
37806;DHT22;25082;50.870;0.022;2023-10-13T15:44:11;20.00;86.30
37806;DHT22;25082;50.870;0.022;2023-10-13T15:46:39;20.00;86.30
37806;DHT22;25082;50.870;0.022;2023-10-13T15:49:05;20.00;86.30
37806;DHT22;25082;50.870;0.022;2023-10-13T15:51:35;20.00;86.30
37806;DHT22;25082;50.870;0.022;2023-10-13T15:54:02;20.00;86.30
37806;DHT22;25082;50.870;0.022;2023-10-13T15:56:29;20.00;86.20
37806;DHT22;25082;50.870;0.022;2023-10-13T15:59:01;20.00;86.20
37806;DHT22;25082;50.870;0.022;2023-10-13T16:01:27;20.00;86.20
37806;DHT22;25082;50.870;0.022;2023-10-13T16:03:54;20.00;86.20
37806;DHT22;25082;50.870;0.022;2023-10-13T16:06:20;20.00;86.20
37806;DHT22;25082;50.870;0.022;2023-10-13T16:08:51;20.00;86.20
37806;DHT22;25082;50.870;0.022;2023-10-13T16:11:18;20.00;86.20
37806;DHT22;25082;50.870;0.022;2023-10-13T16:13:44;20.00;86.10
37806;DHT22;25082;50.870;0.022;2023-10-13T16:16:17;20.00;86.10
37806;DHT22;25082;50.870;0.022;2023-10-13T16:18:44;20.00;86.10